This is the latest recevied weather packets stored in our database for station/object KD8JAM. If no packets are shown the sender has not sent any weather packets the latest 10 day(s).
| Time | Temp. | Humidity | Pressure | Rain* | Wind** | Luminosity | Snow |
|---|---|---|---|---|---|---|---|
| 1777748955 | 10.56° C | 44% | 1015.6 hPa | 0 mm | - | 684 W/m² | - |
| 1777748652 | 10° C | 42% | 1015.6 hPa | 0 mm | - | 732 W/m² | - |
| 1777748348 | 9.44° C | 46% | 1015.5 hPa | 0 mm | - | 743 W/m² | - |
| 1777748044 | 10° C | 43% | 1016 hPa | 0 mm | - | 743 W/m² | - |
| 1777747741 | 10° C | 45% | 1015.8 hPa | 0 mm | - | 750 W/m² | - |
| 1777747436 | 10° C | 42% | 1015.9 hPa | 0 mm | - | 760 W/m² | - |
| 1777747133 | 9.44° C | 45% | 1015.8 hPa | 0 mm | - | 652 W/m² | - |
| 1777746829 | 10° C | 44% | 1015.9 hPa | 0 mm | - | 629 W/m² | - |
| 1777746524 | 10° C | 47% | 1015.8 hPa | 0 mm | - | 774 W/m² | - |
| 1777746220 | 9.44° C | 45% | 1016 hPa | 0 mm | - | 750 W/m² | - |
| 1777745917 | 9.44° C | 47% | 1015.9 hPa | 0 mm | - | 717 W/m² | - |
| 1777745616 | 9.44° C | 44% | 1016.1 hPa | 0 mm | - | 718 W/m² | - |
| 1777745313 | 10° C | 48% | 1015.9 hPa | 0 mm | - | 740 W/m² | - |
| 1777745010 | 9.44° C | 48% | 1016.2 hPa | 0 mm | - | 740 W/m² | - |
| 1777744706 | 8.89° C | 51% | 1016.1 hPa | 0 mm | - | 741 W/m² | - |
| 1777744400 | 10° C | 46% | 1016.3 hPa | 0 mm | - | 748 W/m² | - |
| 1777744098 | 8.89° C | 50% | 1016.3 hPa | 0 mm | - | 732 W/m² | - |
| 1777743795 | 8.89° C | 50% | 1016.5 hPa | 0 mm | - | 730 W/m² | - |
| 1777743491 | 8.89° C | 47% | 1016.6 hPa | 0 mm | - | 734 W/m² | - |
| 1777743188 | 8.89° C | 49% | 1016.7 hPa | 0 mm | - | 706 W/m² | - |
| 1777742886 | 8.89° C | 47% | 1016.7 hPa | 0 mm | - | 699 W/m² | - |
| 1777742583 | 8.89° C | 48% | 1016.7 hPa | 0 mm | - | 741 W/m² | - |
| 1777742279 | 8.89° C | 49% | 1016.8 hPa | 0 mm | - | 744 W/m² | - |
| 1777741975 | 8.89° C | 51% | 1016.7 hPa | 0 mm | - | 746 W/m² | - |
| 1777741673 | 9.44° C | 48% | 1016.8 hPa | 0 mm | - | 744 W/m² | - |
* Rain latest hour (hover to see other rain measurements)
** Current wind speed in m/s (hover to see current wind gust speed)